createdAt,value
2017-08-18T00:00:37.662Z,1009.8
2017-08-18T00:01:39.300Z,1009.8
2017-08-18T00:02:40.944Z,1009.8
2017-08-18T00:03:42.581Z,1009.8
2017-08-18T00:04:44.213Z,1009.8
2017-08-18T00:05:45.848Z,1009.8
2017-08-18T00:06:47.482Z,1009.8
2017-08-18T00:07:49.122Z,1009.8
2017-08-18T00:08:50.763Z,1009.8
2017-08-18T00:09:52.402Z,1009.8
2017-08-18T00:10:54.046Z,1009.8
2017-08-18T00:11:55.680Z,1009.8
2017-08-18T00:12:57.315Z,1009.8
2017-08-18T00:13:58.951Z,1009.8
2017-08-18T00:15:00.590Z,1009.8
2017-08-18T00:16:02.230Z,1009.7
2017-08-18T00:17:03.871Z,1009.7
2017-08-18T00:18:05.511Z,1009.7
2017-08-18T00:19:07.158Z,1009.6
2017-08-18T00:20:08.796Z,1009.6
2017-08-18T00:21:10.432Z,1009.5
2017-08-18T00:22:12.069Z,1009.5
2017-08-18T00:23:13.704Z,1009.5
2017-08-18T00:24:15.345Z,1009.5
2017-08-18T00:25:16.984Z,1009.5
2017-08-18T00:26:18.621Z,1009.5
2017-08-18T00:27:20.258Z,1009.5
2017-08-18T00:28:21.892Z,1009.5
2017-08-18T00:29:23.530Z,1009.5
2017-08-18T00:30:25.173Z,1009.4
2017-08-18T00:31:26.808Z,1009.4
2017-08-18T00:32:28.448Z,1009.4
2017-08-18T00:33:30.082Z,1009.3
2017-08-18T00:34:31.719Z,1009.3
2017-08-18T00:35:33.356Z,1009.3
2017-08-18T00:36:34.997Z,1009.3
2017-08-18T00:37:36.636Z,1009.3
2017-08-18T00:38:38.273Z,1009.3
2017-08-18T00:39:39.917Z,1009.3
2017-08-18T00:40:41.548Z,1009.3
2017-08-18T00:41:43.186Z,1009.4
2017-08-18T00:42:44.822Z,1009.3
2017-08-18T00:43:46.461Z,1009.3
2017-08-18T00:44:48.094Z,1009.3
2017-08-18T00:45:49.735Z,1009.3
2017-08-18T00:46:51.377Z,1009.3
2017-08-18T00:47:53.010Z,1009.3
2017-08-18T00:48:54.643Z,1009.4
2017-08-18T00:49:56.279Z,1009.3
2017-08-18T00:50:57.917Z,1009.3
2017-08-18T00:51:59.560Z,1009.3
2017-08-18T00:53:01.199Z,1009.3
2017-08-18T00:54:02.837Z,1009.3
2017-08-18T00:55:04.477Z,1009.3
2017-08-18T00:56:06.115Z,1009.2
2017-08-18T00:57:07.754Z,1009.2
2017-08-18T00:58:09.391Z,1009.2
2017-08-18T00:59:11.029Z,1009.2
2017-08-18T01:00:12.669Z,1009.2
2017-08-18T01:01:14.311Z,1009.2
2017-08-18T01:02:15.947Z,1009.2
2017-08-18T01:03:17.583Z,1009.2
2017-08-18T01:04:19.221Z,1009.1
2017-08-18T01:05:20.859Z,1009.1
2017-08-18T01:06:22.495Z,1009.1
2017-08-18T01:07:24.138Z,1009.1
2017-08-18T01:08:25.773Z,1009.1
2017-08-18T01:09:27.411Z,1009.1
2017-08-18T01:10:29.048Z,1009.1
2017-08-18T01:11:30.686Z,1009.0
2017-08-18T01:12:32.319Z,1009.0
2017-08-18T01:13:33.960Z,1009.0
2017-08-18T01:14:35.600Z,1008.9
2017-08-18T01:15:37.239Z,1009.0
2017-08-18T01:16:38.873Z,1008.9
2017-08-18T01:17:40.508Z,1008.9
2017-08-18T01:18:42.146Z,1008.9
2017-08-18T01:19:43.781Z,1008.9
2017-08-18T01:20:45.421Z,1008.9
2017-08-18T01:21:47.062Z,1008.9
2017-08-18T01:22:48.702Z,1009.0
2017-08-18T01:23:50.334Z,1009.0
2017-08-18T01:24:51.975Z,1008.9
2017-08-18T01:25:53.610Z,1009.0
2017-08-18T01:26:55.247Z,1008.9
2017-08-18T01:27:56.887Z,1009.0
2017-08-18T01:28:58.528Z,1008.9
2017-08-18T01:30:00.166Z,1008.9
2017-08-18T01:31:01.803Z,1008.9
2017-08-18T01:32:03.440Z,1009.0
2017-08-18T01:33:05.075Z,1009.0
2017-08-18T01:34:06.713Z,1009.0
2017-08-18T01:35:08.352Z,1009.0
2017-08-18T01:36:09.989Z,1009.0
2017-08-18T01:37:11.626Z,1009.0
2017-08-18T01:38:13.261Z,1009.0
2017-08-18T01:39:14.895Z,1009.0
2017-08-18T01:40:16.532Z,1009.0
2017-08-18T01:41:18.170Z,1009.0
2017-08-18T01:42:19.809Z,1009.0
2017-08-18T01:43:21.446Z,1009.0
2017-08-18T01:44:23.088Z,1009.0
2017-08-18T01:45:24.725Z,1008.9
2017-08-18T01:46:26.360Z,1008.9
2017-08-18T01:47:27.993Z,1008.9
2017-08-18T01:48:29.632Z,1008.9
2017-08-18T01:49:31.270Z,1008.9
2017-08-18T01:50:32.908Z,1008.9
2017-08-18T01:51:34.549Z,1008.8
2017-08-18T01:52:36.182Z,1008.8
2017-08-18T01:53:37.824Z,1008.8
2017-08-18T01:54:39.460Z,1008.8
2017-08-18T01:55:41.094Z,1008.9
2017-08-18T01:56:42.732Z,1008.9
2017-08-18T01:57:44.369Z,1008.9
2017-08-18T01:58:46.007Z,1008.9
2017-08-18T01:59:47.641Z,1009.0
2017-08-18T02:00:49.276Z,1009.0
2017-08-18T02:01:50.914Z,1009.0
2017-08-18T02:02:52.563Z,1009.0
2017-08-18T02:03:54.200Z,1009.0
2017-08-18T02:04:55.839Z,1009.0
2017-08-18T02:05:57.479Z,1008.9
2017-08-18T02:06:59.116Z,1008.9
2017-08-18T02:08:00.748Z,1009.0
2017-08-18T02:09:02.385Z,1009.0
2017-08-18T02:10:04.023Z,1009.0
2017-08-18T02:11:05.661Z,1009.0
2017-08-18T02:12:07.304Z,1009.0
2017-08-18T02:13:08.943Z,1009.0
2017-08-18T02:14:10.576Z,1009.0
2017-08-18T02:15:12.215Z,1009.0
2017-08-18T02:16:13.864Z,1009.0
2017-08-18T02:17:15.498Z,1009.0
2017-08-18T02:18:17.135Z,1009.1
2017-08-18T02:19:18.775Z,1009.1
2017-08-18T02:20:20.414Z,1009.0
2017-08-18T02:21:22.049Z,1009.1
2017-08-18T02:22:23.687Z,1009.0
2017-08-18T02:23:25.319Z,1009.0
2017-08-18T02:24:26.956Z,1009.0
2017-08-18T02:25:28.595Z,1008.9
2017-08-18T02:26:30.234Z,1008.9
2017-08-18T02:27:31.872Z,1008.9
2017-08-18T02:28:33.505Z,1008.9
2017-08-18T02:29:35.141Z,1008.9
2017-08-18T02:30:36.780Z,1008.9
2017-08-18T02:31:38.415Z,1008.9
2017-08-18T02:32:40.054Z,1008.9
2017-08-18T02:33:41.693Z,1009.0
2017-08-18T02:34:43.337Z,1009.0
2017-08-18T02:35:44.968Z,1009.1
2017-08-18T02:36:46.607Z,1009.1
2017-08-18T02:37:48.244Z,1009.1
2017-08-18T02:38:49.882Z,1009.1
2017-08-18T02:39:51.525Z,1009.2
2017-08-18T02:40:53.158Z,1009.2
2017-08-18T02:41:54.802Z,1009.2
2017-08-18T02:42:56.435Z,1009.2
2017-08-18T02:43:58.067Z,1009.3
2017-08-18T02:44:59.704Z,1009.3
2017-08-18T02:46:01.340Z,1009.2
2017-08-18T02:47:02.980Z,1009.2
2017-08-18T02:48:04.623Z,1009.1
2017-08-18T02:49:06.257Z,1009.1
2017-08-18T02:50:07.890Z,1009.1
2017-08-18T02:51:09.525Z,1009.2
2017-08-18T02:52:11.162Z,1009.2
2017-08-18T02:53:12.800Z,1009.3
2017-08-18T02:54:14.437Z,1009.3
2017-08-18T02:55:16.083Z,1009.4
2017-08-18T02:56:17.724Z,1009.4
2017-08-18T02:57:19.360Z,1009.4
2017-08-18T02:58:20.997Z,1009.4
2017-08-18T02:59:22.631Z,1009.4
2017-08-18T03:00:24.272Z,1009.4
2017-08-18T03:01:25.908Z,1009.3
2017-08-18T03:02:27.550Z,1009.4
2017-08-18T03:03:29.187Z,1009.4
2017-08-18T03:04:30.824Z,1009.4
2017-08-18T03:05:32.460Z,1009.3
2017-08-18T03:06:34.094Z,1009.2
2017-08-18T03:07:35.734Z,1009.2
2017-08-18T03:08:37.372Z,1009.1
2017-08-18T03:09:39.012Z,1009.1
2017-08-18T03:10:40.654Z,1009.1
2017-08-18T03:11:42.291Z,1009.1
2017-08-18T03:12:43.934Z,1009.0
2017-08-18T03:13:45.567Z,1009.0
2017-08-18T03:14:47.206Z,1009.0
2017-08-18T03:15:48.845Z,1008.9
2017-08-18T03:16:50.482Z,1008.9
2017-08-18T03:17:52.122Z,1008.8
2017-08-18T03:18:53.763Z,1008.8
2017-08-18T03:19:55.399Z,1008.8
2017-08-18T03:20:57.047Z,1008.7
2017-08-18T03:21:58.677Z,1008.7
2017-08-18T03:23:00.317Z,1008.6
2017-08-18T03:24:01.954Z,1008.6
2017-08-18T03:25:03.595Z,1008.7
2017-08-18T03:26:05.227Z,1008.7
2017-08-18T03:27:06.860Z,1008.7
2017-08-18T03:28:08.495Z,1008.7
2017-08-18T03:29:10.134Z,1008.7
2017-08-18T03:30:11.779Z,1008.7
2017-08-18T03:31:13.417Z,1008.6
2017-08-18T03:32:15.055Z,1008.6
2017-08-18T03:33:16.692Z,1008.7
2017-08-18T03:34:18.329Z,1008.7
2017-08-18T03:35:19.962Z,1008.7
2017-08-18T03:36:21.602Z,1008.7
2017-08-18T03:37:23.241Z,1008.7
2017-08-18T03:38:24.881Z,1008.8
2017-08-18T03:39:26.517Z,1008.8
2017-08-18T03:40:28.155Z,1008.9
2017-08-18T03:41:29.789Z,1009.0
2017-08-18T03:42:31.429Z,1009.0
2017-08-18T03:43:33.067Z,1009.0
2017-08-18T03:44:34.707Z,1008.9
2017-08-18T03:45:36.342Z,1008.9
2017-08-18T03:46:37.983Z,1009.0
2017-08-18T03:47:39.615Z,1009.0
2017-08-18T03:48:41.269Z,1008.9
2017-08-18T03:49:42.902Z,1009.0
2017-08-18T03:50:44.540Z,1008.9
2017-08-18T03:51:46.181Z,1008.8
2017-08-18T03:52:47.821Z,1008.7
2017-08-18T03:53:49.459Z,1008.7
2017-08-18T03:54:51.098Z,1008.8
2017-08-18T03:55:52.733Z,1008.8
2017-08-18T03:56:54.370Z,1008.8
2017-08-18T03:57:56.006Z,1008.7
2017-08-18T03:58:57.646Z,1008.6
2017-08-18T03:59:59.281Z,1008.6
2017-08-18T04:01:00.925Z,1008.7
2017-08-18T04:02:02.566Z,1008.7
2017-08-18T04:03:04.198Z,1008.7
2017-08-18T04:04:05.835Z,1008.7
2017-08-18T04:05:07.473Z,1008.7
2017-08-18T04:06:09.109Z,1008.8
2017-08-18T04:07:10.750Z,1008.8
2017-08-18T04:08:12.386Z,1008.8
2017-08-18T04:09:14.020Z,1008.9
2017-08-18T04:10:15.658Z,1009.0
2017-08-18T04:11:17.296Z,1009.0
2017-08-18T04:12:18.931Z,1009.0
2017-08-18T04:13:20.569Z,1009.0
2017-08-18T04:14:22.204Z,1009.0
2017-08-18T04:15:23.846Z,1009.0
2017-08-18T04:16:25.483Z,1009.0
2017-08-18T04:17:27.119Z,1009.0
2017-08-18T04:18:28.758Z,1008.9
2017-08-18T04:19:30.393Z,1008.9
2017-08-18T04:20:32.031Z,1008.9
2017-08-18T04:21:33.671Z,1008.9
2017-08-18T04:22:35.313Z,1008.9
2017-08-18T04:23:36.948Z,1008.9
2017-08-18T04:24:38.587Z,1008.9
2017-08-18T04:25:40.219Z,1008.9
2017-08-18T04:26:41.864Z,1008.8
2017-08-18T04:27:43.499Z,1008.8
2017-08-18T04:28:45.139Z,1008.8
2017-08-18T04:29:46.778Z,1008.8
2017-08-18T04:30:48.416Z,1008.8
2017-08-18T04:31:50.052Z,1008.9
2017-08-18T04:32:51.691Z,1008.8
2017-08-18T04:33:53.327Z,1008.8
2017-08-18T04:34:54.964Z,1008.8
2017-08-18T04:35:56.603Z,1008.8
2017-08-18T04:36:58.246Z,1008.8
2017-08-18T04:37:59.876Z,1008.8
2017-08-18T04:39:01.510Z,1008.8
2017-08-18T04:40:03.150Z,1008.7
2017-08-18T04:41:04.784Z,1008.7
2017-08-18T04:42:06.421Z,1008.8
2017-08-18T04:43:08.064Z,1008.8
2017-08-18T04:44:09.700Z,1008.8
2017-08-18T04:45:11.335Z,1008.8
2017-08-18T04:46:12.971Z,1008.8
2017-08-18T04:47:14.613Z,1008.8
2017-08-18T04:48:16.250Z,1008.8
2017-08-18T04:49:17.890Z,1008.7
2017-08-18T04:50:19.528Z,1008.7
2017-08-18T04:51:21.167Z,1008.6
2017-08-18T04:52:22.801Z,1008.5
2017-08-18T04:53:24.439Z,1008.5
2017-08-18T04:54:26.071Z,1008.5
2017-08-18T04:55:27.712Z,1008.5
2017-08-18T04:56:29.352Z,1008.6
2017-08-18T04:57:30.984Z,1008.6
2017-08-18T04:58:32.628Z,1008.6
2017-08-18T04:59:34.262Z,1008.6
2017-08-18T05:00:35.899Z,1008.7
2017-08-18T05:01:37.537Z,1008.8
2017-08-18T05:02:39.173Z,1008.8
2017-08-18T05:03:40.810Z,1008.9
2017-08-18T05:04:42.449Z,1008.9
2017-08-18T05:05:44.090Z,1008.9
2017-08-18T05:06:45.723Z,1009.0
2017-08-18T05:07:47.358Z,1009.0
2017-08-18T05:08:48.997Z,1009.1
2017-08-18T05:09:50.658Z,1009.1
2017-08-18T05:10:52.275Z,1009.2
2017-08-18T05:11:53.914Z,1009.2
2017-08-18T05:12:55.553Z,1009.2
2017-08-18T05:13:57.187Z,1009.2
2017-08-18T05:14:58.821Z,1009.1
2017-08-18T05:16:00.459Z,1009.0
2017-08-18T05:17:02.110Z,1008.9
2017-08-18T05:18:03.743Z,1008.8
2017-08-18T05:19:05.384Z,1008.7
2017-08-18T05:20:07.025Z,1008.7
2017-08-18T05:21:08.661Z,1008.7
2017-08-18T05:22:10.297Z,1008.7
2017-08-18T05:23:11.939Z,1008.7
2017-08-18T05:24:13.568Z,1008.6
2017-08-18T05:25:15.208Z,1008.6
2017-08-18T05:26:16.849Z,1008.6
2017-08-18T05:27:18.487Z,1008.6
2017-08-18T05:28:20.120Z,1008.5
2017-08-18T05:29:21.757Z,1008.5
2017-08-18T05:30:23.406Z,1008.5
2017-08-18T05:31:25.043Z,1008.5
2017-08-18T05:32:26.679Z,1008.5
2017-08-18T05:33:28.325Z,1008.5
2017-08-18T05:34:29.963Z,1008.5
2017-08-18T05:35:31.602Z,1008.5
2017-08-18T05:36:33.235Z,1008.5
2017-08-18T05:37:34.870Z,1008.4
2017-08-18T05:38:36.512Z,1008.4
2017-08-18T05:39:38.148Z,1008.5
2017-08-18T05:40:39.788Z,1008.4
2017-08-18T05:41:41.428Z,1008.5
2017-08-18T05:42:43.063Z,1008.5
2017-08-18T05:43:44.704Z,1008.5
2017-08-18T05:44:46.341Z,1008.5
2017-08-18T05:45:47.975Z,1008.5
2017-08-18T05:46:49.616Z,1008.5
2017-08-18T05:47:51.255Z,1008.5
2017-08-18T05:48:52.903Z,1008.5
2017-08-18T05:49:54.537Z,1008.5
2017-08-18T05:50:56.171Z,1008.5
2017-08-18T05:51:57.807Z,1008.4
2017-08-18T05:52:59.447Z,1008.4
2017-08-18T05:54:01.085Z,1008.4
2017-08-18T05:55:02.724Z,1008.4
2017-08-18T05:56:04.365Z,1008.4
2017-08-18T05:57:06.004Z,1008.5
2017-08-18T05:58:07.640Z,1008.4
2017-08-18T05:59:09.278Z,1008.4
2017-08-18T06:00:10.923Z,1008.5
2017-08-18T06:01:12.558Z,1008.4
2017-08-18T06:02:14.996Z,1008.4
2017-08-18T06:03:16.588Z,1008.4
2017-08-18T06:04:18.224Z,1008.3
2017-08-18T06:05:19.863Z,1008.3
2017-08-18T06:06:21.498Z,1008.2
2017-08-18T06:07:23.135Z,1008.2
2017-08-18T06:08:24.776Z,1008.3
2017-08-18T06:09:26.411Z,1008.3
2017-08-18T06:10:28.053Z,1008.3
2017-08-18T06:11:29.687Z,1008.3
2017-08-18T06:12:31.319Z,1008.4
2017-08-18T06:13:32.961Z,1008.4
2017-08-18T06:14:34.602Z,1008.4
2017-08-18T06:15:36.242Z,1008.5
2017-08-18T06:16:37.888Z,1008.5
2017-08-18T06:17:39.525Z,1008.5
2017-08-18T06:18:41.159Z,1008.6
2017-08-18T06:19:42.791Z,1008.6
2017-08-18T06:20:44.473Z,1008.6
2017-08-18T06:21:46.112Z,1008.5
2017-08-18T06:22:47.755Z,1008.5
2017-08-18T06:23:49.391Z,1008.5
2017-08-18T06:24:51.032Z,1008.4
2017-08-18T06:25:52.667Z,1008.4
2017-08-18T06:26:54.309Z,1008.4
2017-08-18T06:27:55.945Z,1008.4
2017-08-18T06:28:57.587Z,1008.3
2017-08-18T06:29:59.229Z,1008.3
2017-08-18T06:31:00.867Z,1008.3
2017-08-18T06:32:02.510Z,1008.2
2017-08-18T06:33:04.144Z,1008.2
2017-08-18T06:34:05.783Z,1008.1
2017-08-18T06:35:07.422Z,1008.2
2017-08-18T06:36:09.066Z,1008.2
2017-08-18T06:37:10.708Z,1008.2
2017-08-18T06:38:12.349Z,1008.2
2017-08-18T06:39:13.988Z,1008.2
2017-08-18T06:40:15.625Z,1008.2
2017-08-18T06:41:17.260Z,1008.2
2017-08-18T06:42:18.898Z,1008.2
2017-08-18T06:43:20.537Z,1008.2
2017-08-18T06:44:22.181Z,1008.1
2017-08-18T06:45:23.818Z,1008.1
2017-08-18T06:46:25.458Z,1008.1
2017-08-18T06:47:27.096Z,1008.1
2017-08-18T06:48:28.734Z,1008.1
2017-08-18T06:49:30.378Z,1008.1
2017-08-18T06:50:32.011Z,1008.1
2017-08-18T06:51:33.649Z,1008.1
2017-08-18T06:52:35.291Z,1008.1
2017-08-18T06:53:36.933Z,1008.1
2017-08-18T06:54:38.574Z,1008.1
2017-08-18T06:55:40.212Z,1008.1
2017-08-18T06:56:41.851Z,1008.1
2017-08-18T06:57:43.496Z,1008.2
2017-08-18T06:58:45.133Z,1008.2
2017-08-18T06:59:46.768Z,1008.3
2017-08-18T07:00:48.408Z,1008.4
2017-08-18T07:01:50.047Z,1008.4
2017-08-18T07:02:51.684Z,1008.4
2017-08-18T07:03:53.321Z,1008.4
2017-08-18T07:04:54.959Z,1008.5
2017-08-18T07:05:56.602Z,1008.5
2017-08-18T07:06:58.237Z,1008.4
2017-08-18T07:07:59.882Z,1008.5
2017-08-18T07:09:01.513Z,1008.5
2017-08-18T07:10:03.151Z,1008.6
2017-08-18T07:11:04.792Z,1008.6
2017-08-18T07:12:06.925Z,1008.6
2017-08-18T07:13:08.568Z,1008.6
2017-08-18T07:14:10.203Z,1008.7
2017-08-18T07:15:11.842Z,1008.7
2017-08-18T07:16:13.477Z,1008.8
2017-08-18T07:17:15.115Z,1008.8
2017-08-18T07:18:16.755Z,1008.8
2017-08-18T07:19:18.391Z,1008.9
2017-08-18T07:20:20.031Z,1008.9
2017-08-18T07:21:21.668Z,1008.9
2017-08-18T07:22:23.307Z,1008.9
2017-08-18T07:23:24.943Z,1008.9
2017-08-18T07:24:26.583Z,1008.9
2017-08-18T07:25:28.382Z,1008.9
2017-08-18T07:26:30.022Z,1008.9
2017-08-18T07:27:31.661Z,1008.9
2017-08-18T07:28:33.304Z,1008.9
2017-08-18T07:29:34.944Z,1008.9
2017-08-18T07:30:36.581Z,1008.8
2017-08-18T07:31:38.214Z,1008.9
2017-08-18T07:32:39.986Z,1008.8
2017-08-18T07:33:41.622Z,1008.8
2017-08-18T07:34:43.262Z,1008.9
2017-08-18T07:35:44.904Z,1008.8
2017-08-18T07:36:46.546Z,1008.8
2017-08-18T07:37:48.183Z,1008.8
2017-08-18T07:38:49.817Z,1008.8
2017-08-18T07:39:51.594Z,1008.8
2017-08-18T07:40:53.235Z,1008.8
2017-08-18T07:41:54.878Z,1008.8
2017-08-18T07:42:56.520Z,1008.8
2017-08-18T07:43:58.156Z,1008.8
2017-08-18T07:44:59.793Z,1008.7
2017-08-18T07:46:01.432Z,1008.7
2017-08-18T07:47:03.069Z,1008.6
2017-08-18T07:48:04.708Z,1008.6
2017-08-18T07:49:06.350Z,1008.7
2017-08-18T07:50:07.988Z,1008.7
2017-08-18T07:51:09.629Z,1008.7
2017-08-18T07:52:11.266Z,1008.7
2017-08-18T07:53:12.907Z,1008.7
2017-08-18T07:54:14.542Z,1008.7
2017-08-18T07:55:16.180Z,1008.6
2017-08-18T07:56:17.836Z,1008.6
2017-08-18T07:57:19.482Z,1008.7
2017-08-18T07:58:21.121Z,1008.7
2017-08-18T07:59:22.756Z,1008.8
2017-08-18T08:00:24.397Z,1008.8
2017-08-18T08:01:26.035Z,1008.8
2017-08-18T08:02:27.677Z,1008.8
2017-08-18T08:03:29.327Z,1008.8
2017-08-18T08:04:30.966Z,1008.8
2017-08-18T08:05:32.608Z,1008.8
2017-08-18T08:06:34.242Z,1008.7
2017-08-18T08:07:35.883Z,1008.7
2017-08-18T08:08:37.520Z,1008.7
2017-08-18T08:09:39.160Z,1008.7
2017-08-18T08:10:40.801Z,1008.7
2017-08-18T08:11:42.440Z,1008.8
2017-08-18T08:12:44.078Z,1008.8
2017-08-18T08:13:45.718Z,1008.8
2017-08-18T08:14:47.357Z,1008.8
2017-08-18T08:15:48.994Z,1008.7
2017-08-18T08:16:50.632Z,1008.8
2017-08-18T08:17:52.280Z,1008.7
2017-08-18T08:18:53.922Z,1008.7
2017-08-18T08:19:55.564Z,1008.7
2017-08-18T08:20:57.199Z,1008.6
2017-08-18T08:21:58.841Z,1008.6
2017-08-18T08:23:00.473Z,1008.6
2017-08-18T08:24:02.998Z,1008.6
2017-08-18T08:25:04.708Z,1008.5
2017-08-18T08:26:06.347Z,1008.4
2017-08-18T08:27:07.988Z,1008.4
2017-08-18T08:28:09.626Z,1008.4
2017-08-18T08:29:11.264Z,1008.3
2017-08-18T08:30:12.902Z,1008.4
2017-08-18T08:31:14.559Z,1008.4
2017-08-18T08:32:16.198Z,1008.3
2017-08-18T08:33:17.839Z,1008.3
2017-08-18T08:34:19.481Z,1008.3
2017-08-18T08:35:21.114Z,1008.3
2017-08-18T08:36:22.749Z,1008.3
2017-08-18T08:37:24.389Z,1008.3
2017-08-18T08:38:26.027Z,1008.3
2017-08-18T08:39:27.666Z,1008.3
2017-08-18T08:40:29.302Z,1008.3
2017-08-18T08:41:30.940Z,1008.3
2017-08-18T08:42:32.577Z,1008.2
2017-08-18T08:43:34.214Z,1008.3
2017-08-18T08:44:35.856Z,1008.2
2017-08-18T08:45:37.492Z,1008.2
2017-08-18T08:46:39.131Z,1008.1
2017-08-18T08:47:40.769Z,1008.1
2017-08-18T08:48:42.409Z,1008.1
2017-08-18T08:49:44.059Z,1008.1
2017-08-18T08:50:45.698Z,1008.1
2017-08-18T08:51:47.335Z,1008.1
2017-08-18T08:52:48.972Z,1008.1
2017-08-18T08:53:50.611Z,1008.1
2017-08-18T08:54:52.248Z,1008.1
2017-08-18T08:55:53.891Z,1008.1
2017-08-18T08:56:55.530Z,1008.1
2017-08-18T08:57:57.160Z,1008.1
2017-08-18T08:58:58.800Z,1008.1
2017-08-18T09:00:00.442Z,1008.1
2017-08-18T09:01:02.174Z,1008.1
2017-08-18T09:02:03.819Z,1008.1
2017-08-18T09:03:05.461Z,1008.1
2017-08-18T09:04:07.099Z,1008.1
2017-08-18T09:05:08.735Z,1008.1
2017-08-18T09:06:10.373Z,1008.1
2017-08-18T09:07:12.012Z,1008.1
2017-08-18T09:08:13.652Z,1008.1
2017-08-18T09:09:15.293Z,1008.1
2017-08-18T09:10:16.934Z,1008.1
2017-08-18T09:11:18.570Z,1008.1
2017-08-18T09:12:20.209Z,1008.1
2017-08-18T09:13:21.844Z,1008.1
2017-08-18T09:14:23.482Z,1008.0
2017-08-18T09:15:26.184Z,1008.1
2017-08-18T09:16:27.823Z,1008.1
2017-08-18T09:17:29.462Z,1008.1
2017-08-18T09:18:31.102Z,1008.0
2017-08-18T09:19:32.736Z,1008.0
2017-08-18T09:20:34.378Z,1008.0
2017-08-18T09:21:36.014Z,1008.1
2017-08-18T09:22:37.652Z,1008.1
2017-08-18T09:23:39.291Z,1008.1
2017-08-18T09:24:40.945Z,1008.1
2017-08-18T09:25:42.582Z,1008.1
2017-08-18T09:26:44.221Z,1008.1
2017-08-18T09:27:45.862Z,1008.1
2017-08-18T09:28:47.502Z,1008.1
2017-08-18T09:29:49.143Z,1008.1
2017-08-18T09:30:50.783Z,1008.1
2017-08-18T09:31:52.432Z,1008.1
2017-08-18T09:32:54.071Z,1008.1
2017-08-18T09:33:55.703Z,1008.1
2017-08-18T09:34:57.340Z,1008.1
2017-08-18T09:35:58.978Z,1008.1
2017-08-18T09:37:00.618Z,1008.1
2017-08-18T09:38:02.264Z,1008.1
2017-08-18T09:39:03.904Z,1008.1
2017-08-18T09:40:05.543Z,1008.1
2017-08-18T09:41:07.177Z,1008.0
2017-08-18T09:42:08.821Z,1008.0
2017-08-18T09:43:10.452Z,1008.1
2017-08-18T09:44:12.093Z,1008.0
2017-08-18T09:45:13.737Z,1008.0
2017-08-18T09:46:15.371Z,1008.0
2017-08-18T09:47:17.025Z,1008.0
2017-08-18T09:48:18.666Z,1008.0
2017-08-18T09:49:20.301Z,1008.0
2017-08-18T09:50:21.941Z,1008.0
2017-08-18T09:51:23.581Z,1008.0
2017-08-18T09:52:25.276Z,1008.0
2017-08-18T09:53:26.859Z,1008.0
2017-08-18T09:54:28.503Z,1008.0
2017-08-18T09:55:30.138Z,1008.0
2017-08-18T09:56:31.781Z,1008.1
2017-08-18T09:57:33.415Z,1008.1
2017-08-18T09:58:35.056Z,1008.1
2017-08-18T09:59:37.131Z,1008.1
2017-08-18T10:00:38.769Z,1008.1
2017-08-18T10:01:40.419Z,1008.1
2017-08-18T10:02:42.059Z,1008.0
2017-08-18T10:03:43.692Z,1008.0
2017-08-18T10:04:45.331Z,1008.0
2017-08-18T10:05:46.968Z,1007.9
2017-08-18T10:06:48.668Z,1007.9
2017-08-18T10:07:50.307Z,1007.9
2017-08-18T10:08:51.944Z,1007.9
2017-08-18T10:09:53.582Z,1007.9
2017-08-18T10:10:55.227Z,1007.9
2017-08-18T10:11:56.866Z,1007.9
2017-08-18T10:12:58.503Z,1007.9
2017-08-18T10:14:00.242Z,1007.9
2017-08-18T10:15:01.897Z,1007.9
2017-08-18T10:16:03.522Z,1007.8
2017-08-18T10:17:05.163Z,1007.8
2017-08-18T10:18:06.799Z,1007.8
2017-08-18T10:19:08.436Z,1007.8
2017-08-18T10:20:10.084Z,1007.8
2017-08-18T10:21:12.678Z,1007.8
2017-08-18T10:22:14.318Z,1007.8
2017-08-18T10:23:15.958Z,1007.8
2017-08-18T10:24:17.602Z,1007.8
2017-08-18T10:25:19.236Z,1007.8
2017-08-18T10:26:20.877Z,1007.8
2017-08-18T10:27:22.521Z,1007.8
2017-08-18T10:28:24.163Z,1007.8
2017-08-18T10:29:25.806Z,1007.7
2017-08-18T10:30:27.468Z,1007.7
2017-08-18T10:31:29.118Z,1007.8
2017-08-18T10:32:30.773Z,1007.8
2017-08-18T10:33:32.413Z,1007.8
2017-08-18T10:34:34.053Z,1007.8
2017-08-18T10:35:36.422Z,1007.8
2017-08-18T10:36:38.060Z,1007.7
2017-08-18T10:37:39.695Z,1007.7
2017-08-18T10:38:41.338Z,1007.7
2017-08-18T10:39:42.974Z,1007.7
2017-08-18T10:40:44.613Z,1007.7
2017-08-18T10:41:46.257Z,1007.7
2017-08-18T10:42:47.895Z,1007.6
2017-08-18T10:43:49.536Z,1007.6
2017-08-18T10:44:51.184Z,1007.5
2017-08-18T10:45:52.826Z,1007.5
2017-08-18T10:46:54.466Z,1007.5
2017-08-18T10:47:56.101Z,1007.5
2017-08-18T10:48:57.743Z,1007.6
2017-08-18T10:49:59.380Z,1007.6
2017-08-18T10:51:01.069Z,1007.6
2017-08-18T10:52:02.707Z,1007.6
2017-08-18T10:53:04.347Z,1007.6
2017-08-18T10:54:05.984Z,1007.6
2017-08-18T10:55:07.626Z,1007.6
2017-08-18T10:56:09.271Z,1007.5
2017-08-18T10:57:10.916Z,1007.6
2017-08-18T10:58:12.556Z,1007.5
2017-08-18T10:59:14.191Z,1007.5
2017-08-18T11:00:15.829Z,1007.5
2017-08-18T11:01:17.467Z,1007.5
2017-08-18T11:02:19.106Z,1007.5
2017-08-18T11:03:20.746Z,1007.5
2017-08-18T11:04:22.385Z,1007.5
2017-08-18T11:05:24.650Z,1007.5
2017-08-18T11:06:26.271Z,1007.4
2017-08-18T11:07:27.907Z,1007.4
2017-08-18T11:08:29.548Z,1007.4
2017-08-18T11:09:31.197Z,1007.3
2017-08-18T11:10:32.840Z,1007.3
2017-08-18T11:11:34.493Z,1007.3
2017-08-18T11:12:37.218Z,1007.2
2017-08-18T11:13:38.855Z,1007.2
2017-08-18T11:14:40.491Z,1007.3
2017-08-18T11:15:42.127Z,1007.3
2017-08-18T11:16:43.769Z,1007.3
2017-08-18T11:17:45.411Z,1007.3
2017-08-18T11:18:47.049Z,1007.3
2017-08-18T11:19:49.332Z,1007.3
2017-08-18T11:20:50.972Z,1007.3
2017-08-18T11:21:52.606Z,1007.3
2017-08-18T11:22:54.256Z,1007.3
2017-08-18T11:23:55.895Z,1007.3
2017-08-18T11:24:57.532Z,1007.3
2017-08-18T11:25:59.172Z,1007.3
2017-08-18T11:27:01.773Z,1007.2
2017-08-18T11:28:03.363Z,1007.2
2017-08-18T11:29:04.998Z,1007.3
2017-08-18T11:30:06.633Z,1007.3
2017-08-18T11:31:08.275Z,1007.3
2017-08-18T11:32:09.917Z,1007.3
2017-08-18T11:33:11.557Z,1007.4
2017-08-18T11:34:13.427Z,1007.4
2017-08-18T11:35:15.059Z,1007.5
2017-08-18T11:36:16.700Z,1007.5
2017-08-18T11:37:18.341Z,1007.5
2017-08-18T11:38:19.983Z,1007.5
2017-08-18T11:39:21.615Z,1007.5
2017-08-18T11:40:23.257Z,1007.5
2017-08-18T11:41:24.897Z,1007.4
2017-08-18T11:42:26.535Z,1007.4
2017-08-18T11:43:28.171Z,1007.4
2017-08-18T11:44:29.810Z,1007.4
2017-08-18T11:45:31.450Z,1007.4
2017-08-18T11:46:33.092Z,1007.4
2017-08-18T11:47:34.734Z,1007.3
2017-08-18T11:48:36.385Z,1007.3
2017-08-18T11:49:38.021Z,1007.3
2017-08-18T11:50:39.661Z,1007.3
2017-08-18T11:51:41.298Z,1007.2
2017-08-18T11:52:42.937Z,1007.2
2017-08-18T11:53:44.579Z,1007.1
2017-08-18T11:54:46.218Z,1007.1
2017-08-18T11:55:47.863Z,1007.1
2017-08-18T11:56:49.499Z,1007.1
2017-08-18T11:57:51.140Z,1007.1
2017-08-18T11:58:52.778Z,1007.1
2017-08-18T11:59:54.415Z,1007.1
2017-08-18T12:00:56.057Z,1007.1
2017-08-18T12:01:57.693Z,1007.1
2017-08-18T12:02:59.335Z,1007.1
2017-08-18T12:04:00.976Z,1007.1
2017-08-18T12:05:02.613Z,1007.1
2017-08-18T12:06:04.250Z,1007.1
2017-08-18T12:07:05.890Z,1007.1
2017-08-18T12:08:07.530Z,1007.1
2017-08-18T12:09:09.172Z,1007.1
2017-08-18T12:10:10.808Z,1007.0
2017-08-18T12:11:13.480Z,1007.0
2017-08-18T12:12:15.115Z,1007.0
2017-08-18T12:13:16.752Z,1007.0
2017-08-18T12:14:18.388Z,1007.0
2017-08-18T12:15:20.033Z,1007.1
2017-08-18T12:16:21.673Z,1007.1
2017-08-18T12:17:23.317Z,1007.1
2017-08-18T12:18:25.670Z,1007.1
2017-08-18T12:19:27.310Z,1007.0
2017-08-18T12:20:28.947Z,1007.0
2017-08-18T12:21:30.588Z,1007.0
2017-08-18T12:22:32.227Z,1007.0
2017-08-18T12:23:33.867Z,1007.0
2017-08-18T12:24:36.144Z,1007.0
2017-08-18T12:25:37.779Z,1007.0
2017-08-18T12:26:39.416Z,1007.1
2017-08-18T12:27:41.058Z,1007.1
2017-08-18T12:28:42.700Z,1007.0
2017-08-18T12:29:44.340Z,1007.0
2017-08-18T12:30:45.976Z,1007.0
2017-08-18T12:31:47.618Z,1007.0
2017-08-18T12:32:49.256Z,1007.0
2017-08-18T12:33:50.900Z,1007.0
2017-08-18T12:34:52.538Z,1007.0
2017-08-18T12:35:54.176Z,1007.0
2017-08-18T12:36:56.959Z,1007.0
2017-08-18T12:37:58.595Z,1007.0
2017-08-18T12:39:00.262Z,1007.0
2017-08-18T12:40:01.882Z,1007.0
2017-08-18T12:41:03.517Z,1007.0
2017-08-18T12:42:05.159Z,1007.0
2017-08-18T12:43:06.793Z,1007.0
2017-08-18T12:44:08.432Z,1007.0
2017-08-18T12:45:10.072Z,1007.0
2017-08-18T12:46:11.719Z,1007.0
2017-08-18T12:47:13.350Z,1007.0
2017-08-18T12:48:14.993Z,1007.0
2017-08-18T12:49:16.633Z,1007.0